Terminal Aerodrome Forecast
Issued by NWS

Home | Current Version | Previous Version | Text Only | Print | Product List | Glossary Off
Versions: 1 2 3 4 5 6 7 8 9 10 11 12 13 14 15 16 17 18 19

268
FTUS43 KGRB 150539
TAFCWA
TAF
KCWA 150539Z 1506/1606 14008KT 1 1/2SM -SN OVC015
     FM150900 11004KT 2SM -SN OVC012
      TEMPO 1509/1513 1SM BR BKN008
     FM151300 07005KT 1 1/2SM -SN OVC012
     FM151600 05005KT 1 1/2SM -SN OVC015
     FM160000 02005KT 6SM -SN OVC030
      AMD LTD TO CLD VIS AND WIND TIL 151100=

USA.gov is the U.S. government's official web portal to all federal, state and local government web resources and services.